createdAt,value
2022-11-21T00:00:46.188Z,13.20
2022-11-21T00:03:14.641Z,13.93
2022-11-21T00:05:44.286Z,13.60
2022-11-21T00:08:13.443Z,12.90
2022-11-21T00:10:42.061Z,12.50
2022-11-21T00:13:14.492Z,12.30
2022-11-21T00:15:42.644Z,12.10
2022-11-21T00:18:11.721Z,11.77
2022-11-21T00:20:40.005Z,12.23
2022-11-21T00:23:08.240Z,12.33
2022-11-21T00:25:36.625Z,13.50
2022-11-21T00:28:05.049Z,13.37
2022-11-21T00:30:34.601Z,10.47
2022-11-21T00:33:02.665Z,10.80
2022-11-21T00:35:31.981Z,11.30
2022-11-21T00:38:00.072Z,11.57
2022-11-21T00:40:28.124Z,11.17
2022-11-21T00:42:56.178Z,10.37
2022-11-21T00:45:24.761Z,11.90
2022-11-21T00:47:54.222Z,11.73
2022-11-21T00:50:22.207Z,11.60
2022-11-21T00:52:50.236Z,10.50
2022-11-21T00:55:18.257Z,11.77
2022-11-21T00:57:46.296Z,10.60
2022-11-21T01:00:15.383Z,10.40
2022-11-21T01:02:43.413Z,10.40
2022-11-21T01:05:12.806Z,10.97
2022-11-21T01:07:40.926Z,11.40
2022-11-21T01:10:09.543Z,10.60
2022-11-21T01:12:37.530Z,11.53
2022-11-21T01:15:06.352Z,10.97
2022-11-21T01:17:34.929Z,10.87
2022-11-21T01:20:02.979Z,11.20
2022-11-21T01:22:32.339Z,11.90
2022-11-21T01:25:00.379Z,11.60
2022-11-21T01:27:28.404Z,11.70
2022-11-21T01:29:56.538Z,11.97
2022-11-21T01:32:24.694Z,11.40
2022-11-21T01:34:52.843Z,11.87
2022-11-21T01:37:20.875Z,11.93
2022-11-21T01:39:50.418Z,11.90
2022-11-21T01:42:18.549Z,12.00
2022-11-21T01:44:51.728Z,12.13
2022-11-21T01:47:20.730Z,11.57
2022-11-21T01:49:49.312Z,12.20
2022-11-21T01:52:20.361Z,12.00
2022-11-21T01:54:52.443Z,12.10
2022-11-21T01:57:22.516Z,12.03
2022-11-21T01:59:53.902Z,11.70
2022-11-21T02:02:26.625Z,12.10
2022-11-21T02:04:54.977Z,10.30
2022-11-21T02:07:24.311Z,11.40
2022-11-21T02:09:55.942Z,10.87
2022-11-21T02:12:27.679Z,10.10
2022-11-21T02:14:56.109Z,11.60
2022-11-21T02:17:24.171Z,10.93
2022-11-21T02:19:55.993Z,9.33
2022-11-21T02:22:30.074Z,9.93
2022-11-21T02:25:05.697Z,10.50
2022-11-21T02:27:33.880Z,11.33
2022-11-21T02:30:03.086Z,10.70
2022-11-21T02:32:34.671Z,8.83
2022-11-21T02:35:03.212Z,8.80
2022-11-21T02:37:32.282Z,9.03
2022-11-21T02:40:02.203Z,7.70
2022-11-21T02:42:34.638Z,7.37
2022-11-21T02:45:07.809Z,8.10
2022-11-21T02:47:36.751Z,8.07
2022-11-21T02:50:11.599Z,7.83
2022-11-21T02:52:39.582Z,8.00
2022-11-21T02:55:08.294Z,7.40
2022-11-21T02:57:37.716Z,7.93
2022-11-21T03:00:06.852Z,8.80
2022-11-21T03:02:34.984Z,7.63
2022-11-21T03:05:03.180Z,7.70
2022-11-21T03:07:31.303Z,7.93
2022-11-21T03:09:59.415Z,7.13
2022-11-21T03:12:27.432Z,7.00
2022-11-21T03:14:56.924Z,6.53
2022-11-21T03:17:24.921Z,7.30
2022-11-21T03:19:52.909Z,6.93
2022-11-21T03:22:20.931Z,6.60
2022-11-21T03:24:48.967Z,7.30
2022-11-21T03:27:17.032Z,7.10
2022-11-21T03:29:45.070Z,7.13
2022-11-21T03:32:14.439Z,5.30
2022-11-21T03:34:42.436Z,6.07
2022-11-21T03:37:10.453Z,5.00
2022-11-21T03:39:39.036Z,5.70
2022-11-21T03:42:07.122Z,5.20
2022-11-21T03:44:35.118Z,5.10
2022-11-21T03:47:03.498Z,6.17
2022-11-21T03:49:33.054Z,5.07
2022-11-21T03:52:01.101Z,3.67
2022-11-21T03:54:29.546Z,5.00
2022-11-21T03:56:57.751Z,4.20
2022-11-21T03:59:26.237Z,4.60
2022-11-21T04:01:54.289Z,4.13
2022-11-21T04:04:22.277Z,3.87
2022-11-21T04:06:51.814Z,3.40
2022-11-21T04:09:19.889Z,3.60
2022-11-21T04:11:47.983Z,3.50
2022-11-21T04:14:16.961Z,4.83
2022-11-21T04:16:45.011Z,6.27
2022-11-21T04:19:13.018Z,7.07
2022-11-21T04:21:41.069Z,7.40
2022-11-21T04:24:10.776Z,4.60
2022-11-21T04:26:38.843Z,3.40
2022-11-21T04:29:06.962Z,3.17
2022-11-21T04:31:34.994Z,2.70
2022-11-21T04:34:03.009Z,2.77
2022-11-21T04:36:31.234Z,3.97
2022-11-21T04:38:59.257Z,2.70
2022-11-21T04:41:28.638Z,2.10
2022-11-21T04:43:56.780Z,2.53
2022-11-21T04:46:24.801Z,2.33
2022-11-21T04:48:52.901Z,1.93
2022-11-21T04:51:20.926Z,2.37
2022-11-21T04:53:48.995Z,2.27
2022-11-21T04:56:17.187Z,2.20
2022-11-21T04:58:46.969Z,2.30
2022-11-21T05:01:15.091Z,2.77
2022-11-21T05:03:43.247Z,2.30
2022-11-21T05:06:11.214Z,2.50
2022-11-21T05:08:39.254Z,2.20
2022-11-21T05:11:24.744Z,2.60
2022-11-21T05:13:55.423Z,2.37
2022-11-21T05:16:23.410Z,2.23
2022-11-21T05:18:51.444Z,1.90
2022-11-21T05:21:19.533Z,1.80
2022-11-21T05:23:47.590Z,2.80
2022-11-21T05:26:15.984Z,2.40
2022-11-21T05:28:44.141Z,2.10
2022-11-21T05:31:13.512Z,2.47
2022-11-21T05:33:41.553Z,2.00
2022-11-21T05:36:09.579Z,2.00
2022-11-21T05:38:37.596Z,1.27
2022-11-21T05:41:05.595Z,1.73
2022-11-21T05:43:49.089Z,1.90
2022-11-21T05:46:20.315Z,1.63
2022-11-21T05:48:49.245Z,1.40
2022-11-21T05:51:18.393Z,1.50
2022-11-21T05:53:46.645Z,1.30
2022-11-21T05:56:16.057Z,1.40
2022-11-21T05:58:44.167Z,1.47
2022-11-21T06:01:14.606Z,1.23
2022-11-21T06:03:43.271Z,1.70
2022-11-21T06:06:12.617Z,1.97
2022-11-21T06:08:42.409Z,1.53
2022-11-21T06:11:12.210Z,1.80
2022-11-21T06:13:40.431Z,1.90
2022-11-21T06:16:10.724Z,1.83
2022-11-21T06:18:39.942Z,1.60
2022-11-21T06:21:10.456Z,1.70
2022-11-21T06:23:38.472Z,1.90
2022-11-21T06:26:08.370Z,1.43
2022-11-21T06:28:37.845Z,1.50
2022-11-21T06:31:06.627Z,1.30
2022-11-21T06:33:35.919Z,2.50
2022-11-21T06:36:04.703Z,1.90
2022-11-21T06:38:34.800Z,1.80
2022-11-21T06:41:05.630Z,1.40
2022-11-21T06:43:33.689Z,1.70
2022-11-21T06:46:03.411Z,1.50
2022-11-21T06:48:31.495Z,2.00
2022-11-21T06:50:59.566Z,1.90
2022-11-21T06:53:27.675Z,2.33
2022-11-21T06:55:59.725Z,2.10
2022-11-21T06:58:27.866Z,1.80
2022-11-21T07:00:56.093Z,1.57
2022-11-21T07:03:24.252Z,1.97
2022-11-21T07:05:53.722Z,2.00
2022-11-21T07:08:21.720Z,2.17
2022-11-21T07:11:22.657Z,2.03
2022-11-21T07:13:39.170Z,2.30
2022-11-21T07:16:08.850Z,2.27
2022-11-21T07:18:37.549Z,2.20
2022-11-21T07:21:06.712Z,2.47
2022-11-21T07:23:35.775Z,2.47
2022-11-21T07:26:04.713Z,2.33
2022-11-21T07:28:33.307Z,3.00
2022-11-21T07:31:07.062Z,2.43
2022-11-21T07:33:38.313Z,2.50
2022-11-21T07:36:07.406Z,3.40
2022-11-21T07:38:35.471Z,2.90
2022-11-21T07:41:03.667Z,2.63
2022-11-21T07:43:31.693Z,2.97
2022-11-21T07:45:59.757Z,3.10
2022-11-21T07:48:29.214Z,3.33
2022-11-21T07:50:57.328Z,3.50
2022-11-21T07:53:25.364Z,2.90
2022-11-21T07:55:53.430Z,3.20
2022-11-21T07:58:21.510Z,2.90
2022-11-21T08:00:49.634Z,3.37
2022-11-21T08:03:17.703Z,3.73
2022-11-21T08:05:47.156Z,3.30
2022-11-21T08:08:15.480Z,3.20
2022-11-21T08:10:44.838Z,3.43
2022-11-21T08:13:13.898Z,3.50
2022-11-21T08:15:42.147Z,3.47
2022-11-21T08:18:11.807Z,2.77
2022-11-21T08:20:41.344Z,2.47
2022-11-21T08:23:12.523Z,2.40
2022-11-21T08:25:43.120Z,2.30
2022-11-21T08:28:12.872Z,2.50
2022-11-21T08:30:41.940Z,2.10
2022-11-21T08:33:10.139Z,2.17
2022-11-21T08:35:39.895Z,2.30
2022-11-21T08:38:08.197Z,2.50
2022-11-21T08:40:37.929Z,2.30
2022-11-21T08:43:07.702Z,2.23
2022-11-21T08:45:36.761Z,2.20
2022-11-21T08:48:05.251Z,2.87
2022-11-21T08:50:33.383Z,2.47
2022-11-21T08:53:02.457Z,1.67
2022-11-21T08:55:31.056Z,2.30
2022-11-21T08:58:00.580Z,2.00
2022-11-21T09:00:28.681Z,2.10
2022-11-21T09:02:56.801Z,2.23
2022-11-21T09:05:24.811Z,2.60
2022-11-21T09:07:59.499Z,2.80
2022-11-21T09:10:29.074Z,2.17
2022-11-21T09:13:00.296Z,2.50
2022-11-21T09:15:42.264Z,2.60
2022-11-21T09:18:12.612Z,2.27
2022-11-21T09:20:42.226Z,2.93
2022-11-21T09:23:12.212Z,2.87
2022-11-21T09:25:40.372Z,3.00
2022-11-21T09:28:11.145Z,2.80
2022-11-21T09:30:39.808Z,2.20
2022-11-21T09:33:09.476Z,2.90
2022-11-21T09:35:37.685Z,2.27
2022-11-21T09:38:06.175Z,2.40
2022-11-21T09:40:35.664Z,2.37
2022-11-21T09:43:31.631Z,2.67
2022-11-21T09:46:04.833Z,8.40
2022-11-21T09:48:36.130Z,11.17
2022-11-21T09:51:09.036Z,3.07
2022-11-21T09:53:39.156Z,3.00
2022-11-21T09:56:10.087Z,3.97
2022-11-21T09:58:43.160Z,4.83
2022-11-21T10:01:12.201Z,1.43
2022-11-21T10:03:43.028Z,1.50
2022-11-21T10:06:19.729Z,1.50
2022-11-21T10:08:56.362Z,1.17
2022-11-21T10:11:35.148Z,1.10
2022-11-21T10:14:13.237Z,1.20
2022-11-21T10:16:45.967Z,1.43
2022-11-21T10:19:23.299Z,1.60
2022-11-21T10:22:09.835Z,1.50
2022-11-21T10:24:46.147Z,1.83
2022-11-21T10:27:17.290Z,1.43
2022-11-21T10:29:50.683Z,1.10
2022-11-21T10:32:24.848Z,0.90
2022-11-21T10:34:56.440Z,1.03
2022-11-21T10:37:32.408Z,1.07
2022-11-21T10:40:09.402Z,0.90
2022-11-21T10:42:40.001Z,1.10
2022-11-21T10:45:19.385Z,1.00
2022-11-21T10:47:48.941Z,1.10
2022-11-21T10:50:30.148Z,1.00
2022-11-21T10:53:27.647Z,0.93
2022-11-21T10:56:02.016Z,0.93
2022-11-21T10:58:45.484Z,1.30
2022-11-21T11:01:23.801Z,1.43
2022-11-21T11:04:41.598Z,1.40
2022-11-21T11:07:22.016Z,1.20
2022-11-21T11:09:52.429Z,1.63
2022-11-21T11:12:56.084Z,1.00
2022-11-21T11:15:25.322Z,1.30
2022-11-21T11:17:57.825Z,1.90
2022-11-21T11:20:39.737Z,1.17
2022-11-21T11:23:22.379Z,1.20
2022-11-21T11:25:51.949Z,0.73
2022-11-21T11:28:29.325Z,0.90
2022-11-21T11:30:59.101Z,0.70
2022-11-21T11:33:51.817Z,0.90
2022-11-21T11:36:32.512Z,1.20
2022-11-21T11:39:02.033Z,1.20
2022-11-21T11:42:35.597Z,0.80
2022-11-21T11:45:47.024Z,1.00
2022-11-21T11:48:16.035Z,0.77
2022-11-21T11:50:49.675Z,0.93
2022-11-21T11:53:20.079Z,1.23
2022-11-21T11:55:53.074Z,0.90
2022-11-21T11:58:26.340Z,0.90
2022-11-21T12:01:00.962Z,1.30
2022-11-21T12:03:35.686Z,1.23
2022-11-21T12:06:09.705Z,1.17
2022-11-21T12:08:43.157Z,0.70
2022-11-21T12:11:44.325Z,0.97
2022-11-21T12:14:35.810Z,1.40
2022-11-21T12:17:06.680Z,1.87
2022-11-21T12:19:35.542Z,2.87
2022-11-21T12:22:06.615Z,1.30
2022-11-21T12:24:39.779Z,4.43
2022-11-21T12:27:21.439Z,1.73
2022-11-21T12:30:00.390Z,1.30
2022-11-21T12:32:40.081Z,2.77
2022-11-21T12:35:43.615Z,1.50
2022-11-21T12:38:22.631Z,2.20
2022-11-21T12:40:59.123Z,1.33
2022-11-21T12:43:34.523Z,2.63
2022-11-21T12:46:09.149Z,2.60
2022-11-21T12:49:02.027Z,12.50
2022-11-21T12:52:11.265Z,3.00
2022-11-21T12:55:10.952Z,2.00
2022-11-21T12:57:48.000Z,1.07
2022-11-21T13:00:20.117Z,1.50
2022-11-21T13:03:33.455Z,2.30
2022-11-21T13:06:03.063Z,1.50
2022-11-21T13:08:32.484Z,2.63
2022-11-21T13:11:25.509Z,1.77
2022-11-21T13:14:00.584Z,1.73
2022-11-21T13:16:37.792Z,2.47
2022-11-21T13:19:14.148Z,2.63
2022-11-21T13:21:43.143Z,1.27
2022-11-21T13:24:11.693Z,2.10
2022-11-21T13:26:53.296Z,1.53
2022-11-21T13:29:21.334Z,2.00
2022-11-21T13:31:49.363Z,1.17
2022-11-21T13:34:38.397Z,3.13
2022-11-21T13:37:07.080Z,2.30
2022-11-21T13:39:39.189Z,2.37
2022-11-21T13:42:33.213Z,1.93
2022-11-21T13:45:40.681Z,1.40
2022-11-21T13:48:53.427Z,2.43
2022-11-21T13:51:50.745Z,1.73
2022-11-21T13:54:50.592Z,2.13
2022-11-21T13:57:51.439Z,1.63
2022-11-21T14:00:29.648Z,2.83
2022-11-21T14:03:30.387Z,33.07
2022-11-21T14:06:19.597Z,56.13
2022-11-21T14:09:06.400Z,7.93
2022-11-21T14:11:38.108Z,3.03
2022-11-21T14:14:06.228Z,2.10
2022-11-21T14:16:37.977Z,2.63
2022-11-21T14:19:06.628Z,21.43
2022-11-21T14:21:35.792Z,6.70
2022-11-21T14:24:06.443Z,2.03
2022-11-21T14:26:47.214Z,2.50
2022-11-21T14:29:19.345Z,1.70
2022-11-21T14:31:49.584Z,1.70
2022-11-21T14:34:26.276Z,1.60
2022-11-21T14:36:54.775Z,1.73
2022-11-21T14:39:37.175Z,1.83
2022-11-21T14:42:13.581Z,1.93
2022-11-21T14:44:41.781Z,1.70
2022-11-21T14:47:21.223Z,2.00
2022-11-21T14:49:52.295Z,2.03
2022-11-21T14:52:24.531Z,1.87
2022-11-21T14:57:43.656Z,1.87
2022-11-21T15:00:51.553Z,1.97
2022-11-21T15:03:23.888Z,2.93
2022-11-21T15:06:04.584Z,2.80
2022-11-21T15:11:24.765Z,2.00
2022-11-21T15:16:44.959Z,2.07
2022-11-21T15:19:21.099Z,1.70
2022-11-21T15:21:51.681Z,1.87
2022-11-21T15:24:29.497Z,2.33
2022-11-21T15:26:57.705Z,2.60
2022-11-21T15:29:25.961Z,2.23
2022-11-21T15:32:15.769Z,2.77
2022-11-21T15:34:47.328Z,2.23
2022-11-21T15:37:17.937Z,3.70
2022-11-21T15:39:48.268Z,3.17
2022-11-21T15:42:40.496Z,5.70
2022-11-21T15:45:26.963Z,6.43
2022-11-21T15:47:56.735Z,11.10
2022-11-21T15:50:26.524Z,9.40
2022-11-21T15:52:54.857Z,5.07
2022-11-21T15:55:26.384Z,3.30
2022-11-21T15:57:54.445Z,2.53
2022-11-21T16:00:22.986Z,2.40
2022-11-21T16:02:51.208Z,3.17
2022-11-21T16:05:19.287Z,3.33
2022-11-21T16:07:48.978Z,2.60
2022-11-21T16:10:25.912Z,2.50
2022-11-21T16:12:55.497Z,3.40
2022-11-21T16:15:24.037Z,2.70
2022-11-21T16:17:53.101Z,3.03
2022-11-21T16:20:21.241Z,2.43
2022-11-21T16:22:51.335Z,3.03
2022-11-21T16:25:19.676Z,2.80
2022-11-21T16:27:48.328Z,2.37
2022-11-21T16:30:16.841Z,2.50
2022-11-21T16:32:44.852Z,2.60
2022-11-21T16:35:13.351Z,3.07
2022-11-21T16:37:42.347Z,2.30
2022-11-21T16:40:12.846Z,2.23
2022-11-21T16:42:41.663Z,3.30
2022-11-21T16:45:11.706Z,3.10
2022-11-21T16:47:43.099Z,3.40
2022-11-21T16:50:16.234Z,6.60
2022-11-21T16:52:44.680Z,6.23
2022-11-21T16:55:16.538Z,4.17
2022-11-21T16:57:45.696Z,4.10
2022-11-21T17:00:16.897Z,4.30
2022-11-21T17:02:47.149Z,3.50
2022-11-21T17:05:15.634Z,3.67
2022-11-21T17:07:45.600Z,7.23
2022-11-21T17:10:16.087Z,9.30
2022-11-21T17:12:45.490Z,5.80
2022-11-21T17:15:16.111Z,5.97
2022-11-21T17:17:44.341Z,5.73
2022-11-21T17:20:13.192Z,5.27
2022-11-21T17:22:50.602Z,4.40
2022-11-21T17:25:22.600Z,4.77
2022-11-21T17:27:52.870Z,5.17
2022-11-21T17:30:22.051Z,4.33
2022-11-21T17:32:50.920Z,5.33
2022-11-21T17:35:20.346Z,4.60
2022-11-21T17:37:49.736Z,4.87
2022-11-21T17:40:18.535Z,4.07
2022-11-21T17:42:48.610Z,4.57
2022-11-21T17:45:17.908Z,4.13
2022-11-21T17:47:47.246Z,3.50
2022-11-21T17:50:16.324Z,4.50
2022-11-21T17:52:47.043Z,3.80
2022-11-21T17:55:16.859Z,3.53
2022-11-21T17:57:46.942Z,4.07
2022-11-21T18:00:19.603Z,4.20
2022-11-21T18:02:49.423Z,4.20
2022-11-21T18:05:18.404Z,5.63
2022-11-21T18:07:50.649Z,5.60
2022-11-21T18:10:42.235Z,7.23
2022-11-21T18:13:09.569Z,5.90
2022-11-21T18:15:39.545Z,7.30
2022-11-21T18:18:08.813Z,8.30
2022-11-21T18:20:38.134Z,6.90
2022-11-21T18:23:07.573Z,7.20
2022-11-21T18:25:37.334Z,8.80
2022-11-21T18:28:07.094Z,7.90
2022-11-21T18:30:36.978Z,8.70
2022-11-21T18:33:08.293Z,9.67
2022-11-21T18:35:37.768Z,9.37
2022-11-21T18:38:06.582Z,9.40
2022-11-21T18:40:36.164Z,9.33
2022-11-21T18:43:09.518Z,9.97
2022-11-21T18:45:39.342Z,10.00
2022-11-21T18:48:10.476Z,10.43
2022-11-21T18:50:40.273Z,10.93
2022-11-21T18:53:11.249Z,11.50
2022-11-21T18:55:41.645Z,11.23
2022-11-21T18:58:12.096Z,11.07
2022-11-21T19:00:49.613Z,12.70
2022-11-21T19:03:29.311Z,10.70
2022-11-21T19:06:11.250Z,12.10
2022-11-21T19:08:44.611Z,11.90
2022-11-21T19:11:20.658Z,11.50
2022-11-21T19:13:51.863Z,11.03
2022-11-21T19:16:28.689Z,12.20
2022-11-21T19:19:32.624Z,11.30
2022-11-21T19:21:51.046Z,12.00
2022-11-21T19:24:21.615Z,11.43
2022-11-21T19:26:53.959Z,11.40
2022-11-21T19:29:23.624Z,12.17
2022-11-21T19:31:54.487Z,11.33
2022-11-21T19:34:26.099Z,11.80
2022-11-21T19:36:56.403Z,12.57
2022-11-21T19:39:32.435Z,11.67
2022-11-21T19:42:02.491Z,12.30
2022-11-21T19:44:33.551Z,12.30
2022-11-21T19:47:04.814Z,12.67
2022-11-21T19:49:37.377Z,13.23
2022-11-21T19:52:07.324Z,12.87
2022-11-21T19:54:40.979Z,12.83
2022-11-21T19:57:13.857Z,13.20
2022-11-21T19:59:47.017Z,12.37
2022-11-21T20:02:19.736Z,13.13
2022-11-21T20:04:51.993Z,13.50
2022-11-21T20:07:21.362Z,12.07
2022-11-21T20:09:52.757Z,13.47
2022-11-21T20:12:22.995Z,12.40
2022-11-21T20:14:54.314Z,13.40
2022-11-21T20:17:26.097Z,12.60
2022-11-21T20:20:00.407Z,13.70
2022-11-21T20:22:30.538Z,14.17
2022-11-21T20:25:04.072Z,13.47
2022-11-21T20:27:33.624Z,14.10
2022-11-21T20:30:05.541Z,14.47
2022-11-21T20:32:36.432Z,14.40
2022-11-21T20:35:13.893Z,14.40
2022-11-21T20:37:43.769Z,15.60
2022-11-21T20:40:14.609Z,15.30
2022-11-21T20:42:45.724Z,14.43
2022-11-21T20:48:10.492Z,14.40
2022-11-21T20:51:50.959Z,14.57
2022-11-21T20:53:56.163Z,15.43
2022-11-21T20:56:29.612Z,13.57
2022-11-21T20:58:59.265Z,14.07
2022-11-21T21:01:30.001Z,15.23
2022-11-21T21:03:58.995Z,14.83
2022-11-21T21:06:29.782Z,14.57
2022-11-21T21:08:58.289Z,16.30
2022-11-21T21:11:50.806Z,17.67
2022-11-21T21:14:17.217Z,17.53
2022-11-21T21:16:47.944Z,14.50
2022-11-21T21:19:16.775Z,14.33
2022-11-21T21:21:48.514Z,14.40
2022-11-21T21:24:18.171Z,16.17
2022-11-21T21:26:50.154Z,13.70
2022-11-21T21:29:20.645Z,13.57
2022-11-21T21:31:52.345Z,13.63
2022-11-21T21:34:22.681Z,14.37
2022-11-21T21:36:53.619Z,13.77
2022-11-21T21:39:21.851Z,13.57
2022-11-21T21:41:53.454Z,14.67
2022-11-21T21:44:21.568Z,14.50
2022-11-21T21:46:51.017Z,14.17
2022-11-21T21:49:26.849Z,14.80
2022-11-21T21:51:57.610Z,14.83
2022-11-21T21:54:26.816Z,15.37
2022-11-21T21:56:56.532Z,15.33
2022-11-21T21:59:25.716Z,14.60
2022-11-21T22:01:57.235Z,14.47
2022-11-21T22:04:25.656Z,15.90
2022-11-21T22:06:55.011Z,15.37
2022-11-21T22:09:25.155Z,16.27
2022-11-21T22:11:54.132Z,15.10
2022-11-21T22:14:23.028Z,16.10
2022-11-21T22:16:53.093Z,15.70
2022-11-21T22:19:22.104Z,16.30
2022-11-21T22:21:51.819Z,14.13
2022-11-21T22:24:25.916Z,14.60
2022-11-21T22:26:57.091Z,13.00
2022-11-21T22:29:25.669Z,13.50
2022-11-21T22:31:54.818Z,13.80
2022-11-21T22:34:23.974Z,15.17
2022-11-21T22:36:53.387Z,14.10
2022-11-21T22:39:21.427Z,14.50
2022-11-21T22:41:51.162Z,13.80
2022-11-21T22:44:22.847Z,14.30
2022-11-21T22:46:52.554Z,13.70
2022-11-21T22:49:20.820Z,14.10
2022-11-21T22:51:50.137Z,15.10
2022-11-21T22:54:18.635Z,14.80
2022-11-21T22:57:00.645Z,14.70
2022-11-21T22:59:31.241Z,14.37
2022-11-21T23:02:00.902Z,15.50
2022-11-21T23:04:29.750Z,14.90
2022-11-21T23:06:57.902Z,14.47
2022-11-21T23:09:25.965Z,15.10
2022-11-21T23:11:54.039Z,15.23
2022-11-21T23:14:22.703Z,16.43
2022-11-21T23:16:53.629Z,15.27
2022-11-21T23:19:24.325Z,15.93
2022-11-21T23:21:54.815Z,14.90
2022-11-21T23:24:22.902Z,15.40
2022-11-21T23:26:52.016Z,17.30
2022-11-21T23:29:20.077Z,16.27
2022-11-21T23:31:49.199Z,15.77
2022-11-21T23:34:19.114Z,16.70
2022-11-21T23:36:48.447Z,18.60
2022-11-21T23:39:16.720Z,17.77
2022-11-21T23:41:46.135Z,17.80
2022-11-21T23:44:15.740Z,17.23
2022-11-21T23:46:45.409Z,17.43
2022-11-21T23:49:13.777Z,18.40
2022-11-21T23:51:44.389Z,19.43
2022-11-21T23:54:12.935Z,18.80
2022-11-21T23:56:42.055Z,18.87
2022-11-21T23:59:12.802Z,19.20
